sensor_id;sensor_type;location;lat;lon;timestamp;P1;durP1;ratioP1;P2;durP2;ratioP2
5878;SDS011;2965;42.640;23.370;2023-04-01T04:02:45;17.67;;;4.93;;
5878;SDS011;2965;42.640;23.370;2023-04-01T04:05:10;6.23;;;5.63;;
5878;SDS011;2965;42.640;23.370;2023-04-01T04:07:36;10.90;;;7.43;;
5878;SDS011;2965;42.640;23.370;2023-04-01T04:10:02;12.17;;;7.83;;
5878;SDS011;2965;42.640;23.370;2023-04-01T04:12:28;11.03;;;7.27;;
5878;SDS011;2965;42.640;23.370;2023-04-01T04:14:53;18.43;;;7.53;;
5878;SDS011;2965;42.640;23.370;2023-04-01T04:17:19;10.53;;;7.03;;
5878;SDS011;2965;42.640;23.370;2023-04-01T04:19:44;11.53;;;7.13;;
5878;SDS011;2965;42.640;23.370;2023-04-01T04:22:09;17.00;;;8.43;;
5878;SDS011;2965;42.640;23.370;2023-04-01T04:24:35;14.80;;;9.20;;
5878;SDS011;2965;42.640;23.370;2023-04-01T04:27:01;16.97;;;8.27;;
5878;SDS011;2965;42.640;23.370;2023-04-01T04:29:27;19.63;;;7.30;;
5878;SDS011;2965;42.640;23.370;2023-04-01T04:31:52;18.30;;;7.90;;
5878;SDS011;2965;42.640;23.370;2023-04-01T04:34:18;13.80;;;7.80;;
5878;SDS011;2965;42.640;23.370;2023-04-01T04:36:43;8.87;;;7.33;;
5878;SDS011;2965;42.640;23.370;2023-04-01T04:39:08;12.03;;;5.77;;
5878;SDS011;2965;42.640;23.370;2023-04-01T04:41:36;10.40;;;6.90;;
5878;SDS011;2965;42.640;23.370;2023-04-01T04:44:02;7.50;;;6.37;;
5878;SDS011;2965;42.640;23.370;2023-04-01T04:46:28;13.90;;;6.37;;
5878;SDS011;2965;42.640;23.370;2023-04-01T04:48:54;13.23;;;7.30;;
5878;SDS011;2965;42.640;23.370;2023-04-01T04:51:20;10.23;;;6.70;;
5878;SDS011;2965;42.640;23.370;2023-04-01T04:53:46;23.23;;;7.47;;
5878;SDS011;2965;42.640;23.370;2023-04-01T04:56:12;12.93;;;5.57;;
5878;SDS011;2965;42.640;23.370;2023-04-01T04:58:38;9.17;;;6.73;;
5878;SDS011;2965;42.640;23.370;2023-04-01T05:01:11;16.23;;;6.53;;
5878;SDS011;2965;42.640;23.370;2023-04-01T05:03:38;13.50;;;7.40;;
5878;SDS011;2965;42.640;23.370;2023-04-01T05:06:04;8.60;;;6.20;;
5878;SDS011;2965;42.640;23.370;2023-04-01T05:08:31;8.17;;;5.20;;
5878;SDS011;2965;42.640;23.370;2023-04-01T05:10:58;11.47;;;6.00;;
5878;SDS011;2965;42.640;23.370;2023-04-01T05:13:24;6.90;;;6.30;;
5878;SDS011;2965;42.640;23.370;2023-04-01T05:15:49;8.13;;;5.93;;
5878;SDS011;2965;42.640;23.370;2023-04-01T05:18:14;10.07;;;6.50;;
5878;SDS011;2965;42.640;23.370;2023-04-01T05:20:45;10.70;;;6.90;;
5878;SDS011;2965;42.640;23.370;2023-04-01T05:23:14;14.80;;;6.83;;
5878;SDS011;2965;42.640;23.370;2023-04-01T05:25:40;12.03;;;6.43;;
5878;SDS011;2965;42.640;23.370;2023-04-01T05:28:05;6.53;;;5.40;;
5878;SDS011;2965;42.640;23.370;2023-04-01T05:30:31;13.13;;;6.73;;
5878;SDS011;2965;42.640;23.370;2023-04-01T05:32:56;10.70;;;7.13;;
5878;SDS011;2965;42.640;23.370;2023-04-01T05:35:21;6.27;;;5.40;;
5878;SDS011;2965;42.640;23.370;2023-04-01T05:37:48;10.77;;;8.33;;
5878;SDS011;2965;42.640;23.370;2023-04-01T05:40:13;14.30;;;7.00;;
5878;SDS011;2965;42.640;23.370;2023-04-01T05:42:39;25.10;;;7.37;;
5878;SDS011;2965;42.640;23.370;2023-04-01T05:45:04;8.40;;;7.20;;
5878;SDS011;2965;42.640;23.370;2023-04-01T05:47:30;14.23;;;7.70;;
5878;SDS011;2965;42.640;23.370;2023-04-01T05:49:56;14.20;;;8.07;;
5878;SDS011;2965;42.640;23.370;2023-04-01T05:52:21;17.63;;;9.13;;
5878;SDS011;2965;42.640;23.370;2023-04-01T05:54:46;10.03;;;8.60;;
5878;SDS011;2965;42.640;23.370;2023-04-01T05:57:12;15.23;;;9.07;;
5878;SDS011;2965;42.640;23.370;2023-04-01T05:59:37;11.83;;;8.20;;
5878;SDS011;2965;42.640;23.370;2023-04-01T06:02:03;14.67;;;7.87;;
5878;SDS011;2965;42.640;23.370;2023-04-01T06:04:32;12.00;;;7.53;;
5878;SDS011;2965;42.640;23.370;2023-04-01T06:07:13;14.90;;;7.30;;
5878;SDS011;2965;42.640;23.370;2023-04-01T06:09:40;12.33;;;6.13;;
5878;SDS011;2965;42.640;23.370;2023-04-01T06:12:25;5.67;;;5.27;;
5878;SDS011;2965;42.640;23.370;2023-04-01T07:05:05;10.20;;;8.07;;
5878;SDS011;2965;42.640;23.370;2023-04-01T07:07:41;14.73;;;9.23;;
5878;SDS011;2965;42.640;23.370;2023-04-01T07:13:26;20.20;;;8.70;;
5878;SDS011;2965;42.640;23.370;2023-04-01T07:19:12;13.50;;;8.20;;
5878;SDS011;2965;42.640;23.370;2023-04-01T07:21:46;11.13;;;7.97;;
5878;SDS011;2965;42.640;23.370;2023-04-01T07:24:37;11.80;;;7.50;;
5878;SDS011;2965;42.640;23.370;2023-04-01T07:27:05;19.23;;;8.20;;
5878;SDS011;2965;42.640;23.370;2023-04-01T07:29:34;9.27;;;7.30;;
5878;SDS011;2965;42.640;23.370;2023-04-01T07:32:21;15.93;;;7.60;;
5878;SDS011;2965;42.640;23.370;2023-04-01T07:35:04;16.47;;;7.70;;
5878;SDS011;2965;42.640;23.370;2023-04-01T07:48:33;14.77;;;6.93;;
5878;SDS011;2965;42.640;23.370;2023-04-01T07:54:07;16.80;;;8.93;;
5878;SDS011;2965;42.640;23.370;2023-04-01T07:56:43;14.07;;;7.30;;
5878;SDS011;2965;42.640;23.370;2023-04-01T08:08:55;11.43;;;7.40;;
5878;SDS011;2965;42.640;23.370;2023-04-01T08:11:21;9.77;;;8.40;;
5878;SDS011;2965;42.640;23.370;2023-04-01T08:14:02;18.43;;;6.53;;
5878;SDS011;2965;42.640;23.370;2023-04-01T08:16:41;9.80;;;7.23;;
5878;SDS011;2965;42.640;23.370;2023-04-01T08:22:09;20.50;;;7.20;;
5878;SDS011;2965;42.640;23.370;2023-04-01T08:24:43;13.70;;;6.20;;
5878;SDS011;2965;42.640;23.370;2023-04-01T08:27:13;11.00;;;6.53;;
5878;SDS011;2965;42.640;23.370;2023-04-01T08:29:46;17.83;;;8.30;;
5878;SDS011;2965;42.640;23.370;2023-04-01T08:32:32;9.70;;;8.03;;
5878;SDS011;2965;42.640;23.370;2023-04-01T08:35:07;13.80;;;7.47;;
5878;SDS011;2965;42.640;23.370;2023-04-01T08:37:38;18.60;;;7.10;;
5878;SDS011;2965;42.640;23.370;2023-04-01T08:53:43;9.17;;;6.17;;
5878;SDS011;2965;42.640;23.370;2023-04-01T08:58:52;21.13;;;6.27;;
5878;SDS011;2965;42.640;23.370;2023-04-01T12:32:04;4.67;;;4.33;;
5878;SDS011;2965;42.640;23.370;2023-04-01T12:37:32;7.13;;;4.27;;
5878;SDS011;2965;42.640;23.370;2023-04-01T12:45:59;11.30;;;5.53;;
5878;SDS011;2965;42.640;23.370;2023-04-01T12:53:45;26.53;;;8.40;;
5878;SDS011;2965;42.640;23.370;2023-04-01T13:02:40;55.73;;;12.63;;
5878;SDS011;2965;42.640;23.370;2023-04-01T13:18:29;8.87;;;5.20;;
5878;SDS011;2965;42.640;23.370;2023-04-01T13:21:04;33.07;;;9.70;;
5878;SDS011;2965;42.640;23.370;2023-04-01T13:32:26;5.20;;;3.90;;
5878;SDS011;2965;42.640;23.370;2023-04-01T13:42:51;2.03;;;1.83;;
5878;SDS011;2965;42.640;23.370;2023-04-01T13:45:23;2.33;;;2.23;;
5878;SDS011;2965;42.640;23.370;2023-04-01T13:50:32;2.10;;;2.00;;
5878;SDS011;2965;42.640;23.370;2023-04-01T14:01:13;6.80;;;2.83;;
5878;SDS011;2965;42.640;23.370;2023-04-01T14:03:50;8.20;;;2.60;;
5878;SDS011;2965;42.640;23.370;2023-04-01T14:06:37;2.47;;;2.37;;
5878;SDS011;2965;42.640;23.370;2023-04-01T14:12:16;10.63;;;3.07;;
5878;SDS011;2965;42.640;23.370;2023-04-01T14:21:07;6.87;;;6.10;;
5878;SDS011;2965;42.640;23.370;2023-04-01T14:26:10;7.73;;;6.70;;
5878;SDS011;2965;42.640;23.370;2023-04-01T16:26:28;2.20;;;2.10;;
5878;SDS011;2965;42.640;23.370;2023-04-01T16:36:50;2.30;;;2.20;;
5878;SDS011;2965;42.640;23.370;2023-04-01T16:44:31;2.17;;;2.07;;
5878;SDS011;2965;42.640;23.370;2023-04-01T16:47:38;2.27;;;2.10;;
5878;SDS011;2965;42.640;23.370;2023-04-01T16:53:08;2.60;;;2.50;;
5878;SDS011;2965;42.640;23.370;2023-04-01T16:55:46;1.70;;;1.60;;
5878;SDS011;2965;42.640;23.370;2023-04-01T16:58:26;1.77;;;1.67;;
5878;SDS011;2965;42.640;23.370;2023-04-01T17:01:00;2.17;;;2.07;;
5878;SDS011;2965;42.640;23.370;2023-04-01T17:03:33;1.60;;;1.30;;
5878;SDS011;2965;42.640;23.370;2023-04-01T17:06:50;3.73;;;1.73;;
5878;SDS011;2965;42.640;23.370;2023-04-01T17:11:44;1.50;;;1.40;;
5878;SDS011;2965;42.640;23.370;2023-04-01T17:17:31;1.43;;;1.33;;
5878;SDS011;2965;42.640;23.370;2023-04-01T17:25:20;1.27;;;1.17;;
5878;SDS011;2965;42.640;23.370;2023-04-01T17:27:57;1.37;;;1.27;;
5878;SDS011;2965;42.640;23.370;2023-04-01T17:30:41;1.50;;;1.40;;
5878;SDS011;2965;42.640;23.370;2023-04-01T17:33:24;2.20;;;1.27;;
5878;SDS011;2965;42.640;23.370;2023-04-01T17:39:04;1.47;;;1.43;;
5878;SDS011;2965;42.640;23.370;2023-04-01T17:47:36;1.80;;;1.70;;
5878;SDS011;2965;42.640;23.370;2023-04-01T17:55:46;1.57;;;1.47;;
5878;SDS011;2965;42.640;23.370;2023-04-01T17:58:29;2.80;;;2.60;;
5878;SDS011;2965;42.640;23.370;2023-04-01T18:09:24;2.97;;;2.87;;
